Time;durP1;ratioP1;P1;durP2;ratioP2;P2;SDS_P1;SDS_P2;PMS_P1;PMS_P2;Temp;Humidity;BMP_temperature;BMP_pressure;BME280_temperature;BME280_humidity;BME280_pressure;Samples;Min_cycle;Max_cycle;Signal;HPM_P1;HPM_P2
2023/07/12 00:00:23;;;;;;;;;;;;;;;22.80;30.53;97934.97;4905030;29;932;-76
2023/07/12 00:02:49;;;;;;;;;;;;;;;23.04;30.09;97926.09;4904698;29;1027;-76
2023/07/12 00:05:14;;;;;;;;;;;;;;;23.03;29.99;97930.19;4920412;29;996;-76
2023/07/12 00:07:40;;;;;;;;;;;;;;;22.80;30.40;97939.84;4920627;29;1989;-75
2023/07/12 00:10:35;;;;;;;;;;;;;;;22.81;30.70;97947.91;4920633;29;914;-76
2023/07/12 00:13:01;;;;;;;;;;;;;;;23.06;30.19;97934.97;4863944;29;980;-77
2023/07/12 00:15:30;;;;;;;;;;;;;;;22.91;30.38;97933.84;4849297;29;1034;-76
2023/07/12 00:17:56;;;;;;;;;;;;;;;23.27;29.76;97939.91;4834996;29;969;-76
2023/07/12 00:20:35;;;;;;;;;;;;;;;23.23;29.71;97933.56;4887959;29;1088;-76
2023/07/12 00:23:00;;;;;;;;;;;;;;;23.13;30.08;97940.41;4923352;29;1243;-75
2023/07/12 00:25:27;;;;;;;;;;;;;;;23.00;30.12;97942.44;4923647;29;976;-76
2023/07/12 00:27:53;;;;;;;;;;;;;;;23.25;29.77;97931.06;4923557;29;1915;-77
2023/07/12 00:30:23;;;;;;;;;;;;;;;23.10;29.75;97924.28;4923359;29;1052;-76
2023/07/12 00:32:51;;;;;;;;;;;;;;;23.03;29.71;97935.88;4923461;29;1037;-76
2023/07/12 00:35:18;;;;;;;;;;;;;;;22.97;30.03;97940.53;4923237;29;1189;-76
2023/07/12 00:37:45;;;;;;;;;;;;;;;23.28;29.86;97937.88;4923907;29;977;-76
2023/07/12 00:40:17;;;;;;;;;;;;;;;23.18;30.09;97931.31;4923043;29;970;-76
2023/07/12 00:42:43;;;;;;;;;;;;;;;23.10;29.95;97929.94;4938617;29;1036;-76
2023/07/12 00:45:08;;;;;;;;;;;;;;;23.18;29.93;97931.31;4922957;29;974;-75
2023/07/12 00:47:34;;;;;;;;;;;;;;;22.80;30.64;97932.13;4922876;29;1911;-76
2023/07/12 00:50:00;;;;;;;;;;;;;;;23.23;29.90;97922.22;4983920;28;1009;-76
2023/07/12 00:52:25;;;;;;;;;;;;;;;23.27;29.86;97928.56;4981600;28;875;-76
2023/07/12 00:54:55;;;;;;;;;;;;;;;23.18;29.88;97928.47;4981254;28;1048;-75
2023/07/12 00:57:21;;;;;;;;;;;;;;;22.99;30.22;97929.53;4981442;28;1201;-76
2023/07/12 00:59:47;;;;;;;;;;;;;;;23.09;30.15;97923.47;4965509;28;1277;-76
2023/07/12 01:02:12;;;;;;;;;;;;;;;23.12;29.74;97921.78;4981183;28;1004;-76
2023/07/12 01:04:45;;;;;;;;;;;;;;;23.21;29.95;97913.38;4981720;28;857;-76
2023/07/12 01:07:13;;;;;;;;;;;;;;;23.16;29.76;97922.47;4981411;28;1991;-76
2023/07/12 01:09:39;;;;;;;;;;;;;;;23.06;30.04;97923.63;4998739;28;966;-76
2023/07/12 01:12:07;;;;;;;;;;;;;;;22.75;30.46;97932.69;4981239;28;1160;-75
2023/07/12 01:14:33;;;;;;;;;;;;;;;22.93;30.10;97920.00;4981383;28;958;-75
2023/07/12 01:16:59;;;;;;;;;;;;;;;23.02;29.96;97920.91;4998220;28;911;-76
2023/07/12 01:19:25;;;;;;;;;;;;;;;22.99;30.07;97924.63;4980771;28;974;-77
2023/07/12 01:21:51;;;;;;;;;;;;;;;23.14;29.89;97924.94;4980316;28;1116;-76
2023/07/12 01:24:16;;;;;;;;;;;;;;;22.83;30.49;97928.38;4964871;28;1281;-76
2023/07/12 01:26:44;;;;;;;;;;;;;;;22.81;30.52;97919.53;4980813;28;1930;-76
2023/07/12 01:29:09;;;;;;;;;;;;;;;23.11;29.98;97925.88;4957294;29;1243;-76
2023/07/12 01:31:35;;;;;;;;;;;;;;;22.72;30.66;97930.75;4957110;29;1134;-76
2023/07/12 01:34:00;;;;;;;;;;;;;;;22.91;30.50;97923.31;4940797;29;959;-76
2023/07/12 01:36:26;;;;;;;;;;;;;;;22.97;30.41;97921.47;4957603;28;906;-76
2023/07/12 01:38:54;;;;;;;;;;;;;;;23.07;29.86;97919.53;4941209;29;1015;-76
2023/07/12 01:41:20;;;;;;;;;;;;;;;22.71;30.67;97926.34;4924905;29;908;-76
2023/07/12 01:43:45;;;;;;;;;;;;;;;22.79;30.63;97933.34;4956954;29;967;-76
2023/07/12 01:46:11;;;;;;;;;;;;;;;22.73;30.83;97929.50;4940976;29;1129;-76
2023/07/12 01:48:36;;;;;;;;;;;;;;;23.13;30.33;97920.53;4924852;29;1964;-76
2023/07/12 01:51:02;;;;;;;;;;;;;;;22.92;30.51;97929.75;4941049;29;1196;-76
2023/07/12 01:53:28;;;;;;;;;;;;;;;22.99;30.57;97929.53;4925097;29;1206;-76
2023/07/12 01:55:53;;;;;;;;;;;;;;;23.26;30.11;97926.16;4937674;29;1140;-76
2023/07/12 01:58:19;;;;;;;;;;;;;;;23.00;30.47;97931.09;4937653;29;1238;-75
2023/07/12 02:00:45;;;;;;;;;;;;;;;23.00;30.21;97936.78;4952127;29;1653;-77
2023/07/12 02:03:10;;;;;;;;;;;;;;;22.83;30.48;97927.56;4940799;29;1001;-76
2023/07/12 02:05:36;;;;;;;;;;;;;;;23.10;30.15;97929.94;4940619;29;954;-76
2023/07/12 02:08:01;;;;;;;;;;;;;;;23.23;30.17;97929.94;4937022;29;1902;-76
2023/07/12 02:10:27;;;;;;;;;;;;;;;23.23;29.85;97933.56;4937379;29;1347;-76
2023/07/12 02:12:54;;;;;;;;;;;;;;;23.00;30.43;97934.75;4937383;29;981;-76
2023/07/12 02:15:20;;;;;;;;;;;;;;;21.32;30.46;97721.78;4937435;29;970;-76
2023/07/12 02:17:45;;;;;;;;;;;;;;;23.31;30.08;97937.75;4937797;29;831;-77
2023/07/12 02:20:13;;;;;;;;;;;;;;;23.09;30.16;97934.03;4921618;29;1039;-76
2023/07/12 02:22:43;;;;;;;;;;;;;;;22.90;30.59;97940.75;4936814;29;1174;-76
2023/07/12 02:25:09;;;;;;;;;;;;;;;23.14;30.11;97930.63;4922056;29;945;-75
2023/07/12 02:27:35;;;;;;;;;;;;;;;22.70;31.13;97950.28;4937015;29;1903;-76
2023/07/12 02:30:00;;;;;;;;;;;;;;;22.86;30.85;97947.31;4936926;29;935;-76
2023/07/12 02:32:27;;;;;;;;;;;;;;;22.75;30.77;97948.94;4926341;28;1094;-77
2023/07/12 02:34:52;;;;;;;;;;;;;;;22.73;30.89;97960.72;4942694;28;1117;-76
2023/07/12 02:37:18;;;;;;;;;;;;;;;23.03;30.80;97958.56;4943663;28;1385;-76
2023/07/12 02:39:44;;;;;;;;;;;;;;;23.02;30.61;97962.66;4975576;28;1200;-75
2023/07/12 02:42:09;;;;;;;;;;;;;;;23.05;30.57;97961.75;4947977;28;1057;-76
2023/07/12 02:44:37;;;;;;;;;;;;;;;23.00;30.63;97965.16;4963370;28;969;-76
2023/07/12 02:47:02;;;;;;;;;;;;;;;23.05;30.71;97967.41;4963408;28;1906;-75
2023/07/12 02:49:28;;;;;;;;;;;;;;;23.03;30.53;97964.25;4979883;28;975;-76
2023/07/12 02:51:54;;;;;;;;;;;;;;;23.16;30.22;97956.53;4963719;28;1257;-76
2023/07/12 02:54:19;;;;;;;;;;;;;;;23.09;30.32;97968.09;4963803;28;1142;-76
2023/07/12 02:56:45;;;;;;;;;;;;;;;22.89;30.85;97971.19;4979702;28;946;-76
2023/07/12 02:59:10;;;;;;;;;;;;;;;23.09;30.50;97976.63;4979105;28;1135;-76
2023/07/12 03:01:36;;;;;;;;;;;;;;;23.18;30.28;97982.41;4962979;28;953;-76
2023/07/12 03:04:01;;;;;;;;;;;;;;;23.13;30.40;97985.81;4996739;28;851;-76
2023/07/12 03:06:27;;;;;;;;;;;;;;;23.21;30.33;97992.84;4979307;28;898;-75
2023/07/12 03:08:52;;;;;;;;;;;;;;;22.63;31.21;97995.88;4978221;28;1991;-76
2023/07/12 03:11:18;;;;;;;;;;;;;;;23.05;30.48;98001.47;4963504;28;975;-76
2023/07/12 03:13:43;;;;;;;;;;;;;;;22.77;31.10;97997.47;4974789;28;962;-76
2023/07/12 03:16:09;;;;;;;;;;;;;;;22.91;30.75;98007.63;4975355;28;966;-77
2023/07/12 03:18:35;;;;;;;;;;;;;;;22.86;30.68;98008.94;4942458;28;965;-76
2023/07/12 03:21:00;;;;;;;;;;;;;;;23.20;30.22;98007.47;4939680;29;1253;-76
2023/07/12 03:23:26;;;;;;;;;;;;;;;22.92;30.91;98014.88;4923522;29;1156;-75
2023/07/12 03:25:52;;;;;;;;;;;;;;;23.00;30.50;98016.22;4939770;29;1207;-75
2023/07/12 03:28:17;;;;;;;;;;;;;;;23.02;30.54;98010.91;4923608;29;1974;-76
2023/07/12 03:30:43;;;;;;;;;;;;;;;23.20;30.08;98013.16;4955338;29;1052;-75
2023/07/12 03:33:08;;;;;;;;;;;;;;;22.64;30.87;98006.00;4919732;29;912;-76
2023/07/12 03:35:34;;;;;;;;;;;;;;;22.89;30.52;98010.91;4936149;29;1018;-75
2023/07/12 03:37:59;;;;;;;;;;;;;;;22.94;30.23;98012.38;4935513;29;1812;-75
2023/07/12 03:40:25;;;;;;;;;;;;;;;23.05;30.18;98021.34;4934994;29;1741;-76
2023/07/12 03:42:50;;;;;;;;;;;;;;;23.13;30.03;98025.53;4897665;29;1535;-77
2023/07/12 03:45:16;;;;;;;;;;;;;;;23.21;29.75;98026.91;4899002;29;1048;-76
2023/07/12 03:47:41;;;;;;;;;;;;;;;23.20;29.69;98036.66;4886248;29;1899;-76
2023/07/12 03:50:07;;;;;;;;;;;;;;;23.11;29.81;98039.41;4870373;29;1050;-76
2023/07/12 03:52:32;;;;;;;;;;;;;;;23.00;30.03;98044.59;4901699;29;1501;-76
2023/07/12 03:54:58;;;;;;;;;;;;;;;23.09;29.73;98053.25;4901865;29;971;-76
2023/07/12 03:57:23;;;;;;;;;;;;;;;22.98;29.53;98064.13;4886034;29;973;-76
2023/07/12 03:59:49;;;;;;;;;;;;;;;23.19;29.17;98068.34;4901896;29;1038;-76
2023/07/12 04:02:15;;;;;;;;;;;;;;;23.08;29.25;98069.47;4885619;29;975;-75
2023/07/12 04:04:40;;;;;;;;;;;;;;;22.83;29.38;98070.22;4901370;29;1017;-75
2023/07/12 04:07:06;;;;;;;;;;;;;;;23.21;28.50;98069.50;4885976;29;1911;-76
2023/07/12 04:09:31;;;;;;;;;;;;;;;22.68;29.32;98080.41;4904672;29;1305;-76
2023/07/12 04:11:57;;;;;;;;;;;;;;;22.92;29.18;98082.97;4932352;29;1455;-76
2023/07/12 04:14:23;;;;;;;;;;;;;;;22.96;28.89;98083.66;4990953;28;950;-75
2023/07/12 04:16:48;;;;;;;;;;;;;;;22.53;29.48;98087.72;4985096;28;1240;-76
2023/07/12 04:19:14;;;;;;;;;;;;;;;23.02;28.60;98093.22;5001830;28;970;-75
2023/07/12 04:21:39;;;;;;;;;;;;;;;22.91;28.89;98099.22;5018906;28;976;-75
2023/07/12 04:24:05;;;;;;;;;;;;;;;22.78;29.27;98106.84;5008988;28;1488;-76
2023/07/12 04:26:30;;;;;;;;;;;;;;;23.12;28.78;98111.94;4955164;28;1527;-75
2023/07/12 04:28:56;;;;;;;;;;;;;;;23.14;28.19;98117.97;4945184;28;1965;-76
2023/07/12 04:31:22;;;;;;;;;;;;;;;22.84;28.78;98124.91;4945244;28;1275;-75
2023/07/12 04:33:47;;;;;;;;;;;;;;;22.98;28.62;98126.56;4961492;28;1648;-76
2023/07/12 04:36:13;;;;;;;;;;;;;;;22.93;28.59;98129.97;4961743;28;1101;-75
2023/07/12 04:38:38;;;;;;;;;;;;;;;22.61;29.23;98123.16;4938658;29;1153;-77
2023/07/12 04:41:05;;;;;;;;;;;;;;;22.94;28.83;98137.22;4922251;29;1499;-75
2023/07/12 04:43:30;;;;;;;;;;;;;;;22.68;29.17;98134.28;4922877;29;955;-75
2023/07/12 04:45:59;;;;;;;;;;;;;;;22.82;28.93;98131.03;4922999;29;1503;-76
2023/07/12 04:48:24;;;;;;;;;;;;;;;23.03;28.61;98135.31;4922552;29;1907;-76
2023/07/12 04:50:50;;;;;;;;;;;;;;;23.16;28.44;98131.69;4922902;29;1477;-75
2023/07/12 04:53:16;;;;;;;;;;;;;;;22.88;28.70;98129.28;4922513;29;989;-76
2023/07/12 04:55:41;;;;;;;;;;;;;;;22.95;28.29;98138.81;4922086;29;1341;-76
2023/07/12 04:58:07;;;;;;;;;;;;;;;22.83;28.90;98146.03;4951181;28;985;-76
2023/07/12 05:00:33;;;;;;;;;;;;;;;22.61;28.88;98148.69;4922674;29;946;-76
2023/07/12 05:02:59;;;;;;;;;;;;;;;22.87;28.79;98147.50;4922543;29;998;-76
2023/07/12 05:05:24;;;;;;;;;;;;;;;22.92;28.63;98153.91;4938303;29;920;-76
2023/07/12 05:07:50;;;;;;;;;;;;;;;22.95;28.44;98161.50;4938480;29;1968;-76
2023/07/12 05:10:15;;;;;;;;;;;;;;;22.98;28.47;98164.25;4947957;29;1350;-75
2023/07/12 05:12:41;;;;;;;;;;;;;;;22.72;28.97;98166.19;4941334;29;1025;-75
2023/07/12 05:15:07;;;;;;;;;;;;;;;22.99;28.58;98162.22;4941717;29;906;-76
2023/07/12 05:17:33;;;;;;;;;;;;;;;23.00;28.49;98169.47;4938335;29;960;-75
2023/07/12 05:19:58;;;;;;;;;;;;;;;22.68;28.97;98159.81;4922233;29;1145;-76
2023/07/12 05:22:24;;;;;;;;;;;;;;;22.71;28.99;98173.13;4922009;29;1324;-78
2023/07/12 05:24:49;;;;;;;;;;;;;;;22.71;29.06;98175.16;4875817;29;1584;-75
2023/07/12 05:27:15;;;;;;;;;;;;;;;22.71;28.77;98175.16;4909672;29;1988;-76
2023/07/12 05:29:40;;;;;;;;;;;;;;;22.94;28.44;98176.94;4919187;29;979;-76
2023/07/12 05:32:06;;;;;;;;;;;;;;;22.89;28.79;98178.28;4917225;29;939;-76
2023/07/12 05:34:32;;;;;;;;;;;;;;;22.94;28.66;98182.63;4906395;29;1001;-76
2023/07/12 05:36:57;;;;;;;;;;;;;;;22.99;28.50;98179.22;4937805;29;937;-76
2023/07/12 05:39:23;;;;;;;;;;;;;;;22.73;28.89;98176.28;4922021;29;1217;-76
2023/07/12 05:41:48;;;;;;;;;;;;;;;22.92;28.82;98173.78;4920239;29;1370;-76
2023/07/12 05:44:14;;;;;;;;;;;;;;;22.97;28.38;98176.06;4906379;29;947;-76
2023/07/12 05:46:39;;;;;;;;;;;;;;;22.83;28.86;98163.84;4921513;29;1063;-76
2023/07/12 05:49:05;;;;;;;;;;;;;;;22.80;28.80;98167.59;4935761;29;1903;-76
2023/07/12 05:51:30;;;;;;;;;;;;;;;23.04;28.58;98168.13;4940967;29;942;-76
2023/07/12 05:53:56;;;;;;;;;;;;;;;22.92;28.96;98173.78;4956981;29;948;-76
2023/07/12 05:56:21;;;;;;;;;;;;;;;22.99;28.43;98179.22;4937820;28;1518;-76
2023/07/12 05:58:47;;;;;;;;;;;;;;;22.75;29.17;98170.97;4959753;28;970;-76
2023/07/12 06:01:12;;;;;;;;;;;;;;;23.02;28.61;98192.53;4954704;29;1680;-76
2023/07/12 06:03:38;;;;;;;;;;;;;;;22.82;29.22;98193.47;4956712;29;924;-76
2023/07/12 06:06:07;;;;;;;;;;;;;;;22.85;28.81;98186.91;4956472;29;978;-76
2023/07/12 06:08:32;;;;;;;;;;;;;;;23.03;28.82;98196.97;4924107;29;1911;-77
2023/07/12 06:10:58;;;;;;;;;;;;;;;22.79;29.02;98194.34;4957184;29;977;-75
2023/07/12 06:13:23;;;;;;;;;;;;;;;22.86;28.92;98194.16;4956483;29;931;-76
2023/07/12 06:15:49;;;;;;;;;;;;;;;23.16;28.58;98189.28;4958582;28;1380;-76
2023/07/12 06:18:14;;;;;;;;;;;;;;;22.75;29.23;98185.16;4920227;29;1513;-76
2023/07/12 06:20:40;;;;;;;;;;;;;;;22.98;28.60;98183.31;4937164;29;1090;-76
2023/07/12 06:23:05;;;;;;;;;;;;;;;23.02;28.59;98184.81;4920966;29;1276;-77
2023/07/12 06:25:31;;;;;;;;;;;;;;;23.10;28.33;98182.53;4937381;29;1052;-75
2023/07/12 06:27:56;;;;;;;;;;;;;;;22.96;28.92;98188.66;4936753;29;1977;-76
2023/07/12 06:30:22;;;;;;;;;;;;;;;22.84;28.82;98188.13;4929934;29;1348;-76
2023/07/12 06:32:47;;;;;;;;;;;;;;;22.71;29.18;98192.97;4912467;29;1657;-76
2023/07/12 06:35:13;;;;;;;;;;;;;;;22.90;28.86;98196.13;4920985;29;1407;-76
2023/07/12 06:37:38;;;;;;;;;;;;;;;23.00;28.64;98192.16;4914628;29;954;-75
2023/07/12 06:40:05;;;;;;;;;;;;;;;23.18;28.41;98192.44;4898750;29;1029;-76
2023/07/12 06:42:30;;;;;;;;;;;;;;;23.07;28.67;98189.13;4902450;29;1026;-76
2023/07/12 06:44:57;;;;;;;;;;;;;;;22.91;28.74;98194.88;4920866;29;1262;-76
2023/07/12 06:47:22;;;;;;;;;;;;;;;23.01;28.63;98185.28;4952082;29;1914;-77
2023/07/12 06:49:48;;;;;;;;;;;;;;;23.03;28.89;98192.06;4920756;29;937;-77
2023/07/12 06:52:13;;;;;;;;;;;;;;;23.16;28.62;98177.94;4905135;29;1142;-76
2023/07/12 06:54:39;;;;;;;;;;;;;;;23.01;28.88;98177.56;4921117;29;955;-76
2023/07/12 06:57:04;;;;;;;;;;;;;;;22.83;29.19;98183.69;4936781;29;999;-76
2023/07/12 06:59:30;;;;;;;;;;;;;;;22.90;29.21;98181.94;4921093;29;863;-76
2023/07/12 07:01:55;;;;;;;;;;;;;;;22.84;29.22;98185.28;4894913;29;1553;-75
2023/07/12 07:04:21;;;;;;;;;;;;;;;23.12;28.69;98180.84;4883552;29;1013;-76
2023/07/12 07:06:47;;;;;;;;;;;;;;;23.12;28.59;98182.91;4879766;29;1903;-76
2023/07/12 07:09:12;;;;;;;;;;;;;;;23.07;28.84;98180.63;4898723;29;1463;-76
2023/07/12 07:11:37;;;;;;;;;;;;;;;22.98;28.99;98186.94;4936462;29;1039;-76
2023/07/12 07:14:03;;;;;;;;;;;;;;;23.05;29.07;98194.44;4936316;29;1019;-76
2023/07/12 07:16:29;;;;;;;;;;;;;;;23.00;28.99;98192.16;4929730;29;1270;-76
2023/07/12 07:18:55;;;;;;;;;;;;;;;22.97;29.00;98196.72;4901795;29;1015;-76
2023/07/12 07:21:21;;;;;;;;;;;;;;;22.91;29.11;98201.34;4919793;29;1128;-76
2023/07/12 07:23:46;;;;;;;;;;;;;;;22.88;29.20;98191.69;4921285;29;1036;-76
2023/07/12 07:26:12;;;;;;;;;;;;;;;23.05;29.01;98188.78;4921324;29;936;-76
2023/07/12 07:28:38;;;;;;;;;;;;;;;22.96;29.08;98185.81;4920927;29;1915;-75
2023/07/12 07:31:03;;;;;;;;;;;;;;;22.97;29.05;98184.56;4921336;29;1347;-76
2023/07/12 07:33:29;;;;;;;;;;;;;;;22.68;29.41;98193.84;4921115;29;915;-76
2023/07/12 07:35:55;;;;;;;;;;;;;;;22.96;29.34;98197.97;4920969;29;982;-76
2023/07/12 07:38:25;;;;;;;;;;;;;;;22.80;29.54;98201.63;4939725;28;1501;-75
2023/07/12 07:40:51;;;;;;;;;;;;;;;22.73;29.83;98196.16;4966713;28;1446;-75
2023/07/12 07:43:16;;;;;;;;;;;;;;;22.86;29.35;98197.00;4983122;28;943;-76
2023/07/12 07:45:42;;;;;;;;;;;;;;;23.24;28.77;98202.00;5000032;28;998;-76
2023/07/12 07:48:07;;;;;;;;;;;;;;;23.19;28.79;98205.38;4995467;28;1906;-76
2023/07/12 07:50:33;;;;;;;;;;;;;;;23.30;28.71;98205.84;4966104;28;909;-76
2023/07/12 07:52:58;;;;;;;;;;;;;;;22.93;29.21;98204.53;4999844;28;859;-78
2023/07/12 07:55:26;;;;;;;;;;;;;;;22.99;29.48;98208.41;4998991;28;867;-76
2023/07/12 07:57:51;;;;;;;;;;;;;;;22.88;29.46;98202.25;4966240;28;952;-76
2023/07/12 08:00:17;;;;;;;;;;;;;;;22.90;29.73;98204.63;4982282;28;934;-76
2023/07/12 08:02:43;;;;;;;;;;;;;;;22.82;29.70;98201.19;4993428;28;1493;-75
2023/07/12 08:05:11;;;;;;;;;;;;;;;22.81;29.77;98208.91;4982202;28;1001;-76
2023/07/12 08:07:38;;;;;;;;;;;;;;;22.97;29.58;98210.13;5000056;28;1910;-76
2023/07/12 08:10:04;;;;;;;;;;;;;;;23.15;29.05;98204.69;4999600;28;955;-77
2023/07/12 08:12:29;;;;;;;;;;;;;;;23.03;29.34;98208.31;4958482;29;1060;-76
2023/07/12 08:14:55;;;;;;;;;;;;;;;23.20;29.13;98223.22;4942748;29;1036;-76
2023/07/12 08:17:20;;;;;;;;;;;;;;;23.02;29.63;98209.56;4970224;28;1371;-76
2023/07/12 08:19:50;;;;;;;;;;;;;;;22.90;29.52;98210.31;4961085;28;1400;-76
2023/07/12 08:22:17;;;;;;;;;;;;;;;22.87;29.54;98209.94;4977594;28;1134;-76
2023/07/12 08:24:42;;;;;;;;;;;;;;;23.11;29.33;98204.03;4945632;28;1162;-76
2023/07/12 08:27:09;;;;;;;;;;;;;;;23.16;29.33;98211.16;4977608;28;1911;-76
2023/07/12 08:29:35;;;;;;;;;;;;;;;23.07;29.36;98203.34;4961481;28;1227;-77
2023/07/12 08:32:00;;;;;;;;;;;;;;;23.07;29.57;98203.34;4975644;28;1392;-76
2023/07/12 08:34:26;;;;;;;;;;;;;;;23.23;29.46;98206.09;4977856;28;925;-76
2023/07/12 08:36:51;;;;;;;;;;;;;;;23.06;29.31;98211.06;4977680;28;946;-76
2023/07/12 08:39:17;;;;;;;;;;;;;;;23.12;29.61;98205.63;4977690;28;985;-76
2023/07/12 08:41:42;;;;;;;;;;;;;;;23.35;29.08;98215.88;4977464;28;888;-77
2023/07/12 08:44:17;;;;;;;;;;;;;;;23.31;29.12;98216.00;4977631;28;882;-76
2023/07/12 08:46:51;;;;;;;;;;;;;;;23.20;29.26;98214.69;4960746;28;1410;-76
2023/07/12 08:49:17;;;;;;;;;;;;;;;23.17;29.49;98207.09;4951734;28;1048;-76
2023/07/12 08:51:43;;;;;;;;;;;;;;;23.20;29.34;98209.81;4981458;28;964;-77
2023/07/12 08:54:16;;;;;;;;;;;;;;;23.09;29.38;98212.97;4981929;28;852;-76
2023/07/12 08:56:41;;;;;;;;;;;;;;;23.04;29.54;98209.91;4997425;28;983;-76
2023/07/12 08:59:07;;;;;;;;;;;;;;;23.28;29.29;98207.56;5014338;28;1269;-77
2023/07/12 09:01:36;;;;;;;;;;;;;;;23.02;29.67;98201.84;4997609;28;1302;-76
2023/07/12 09:04:14;;;;;;;;;;;;;;;23.06;29.48;98196.06;4998664;28;941;-76
2023/07/12 09:06:40;;;;;;;;;;;;;;;23.31;29.07;98196.13;4942009;29;996;-76
2023/07/12 09:09:06;;;;;;;;;;;;;;;23.14;29.57;98203.09;4941844;29;1903;-76
2023/07/12 09:11:32;;;;;;;;;;;;;;;23.11;29.61;98209.72;4941804;29;1035;-76
2023/07/12 09:13:57;;;;;;;;;;;;;;;22.98;29.81;98212.50;4941970;29;931;-77
2023/07/12 09:16:24;;;;;;;;;;;;;;;23.16;29.31;98212.00;4958572;28;1462;-79
2023/07/12 09:18:53;;;;;;;;;;;;;;;23.26;29.57;98215.72;4941738;29;914;-76
2023/07/12 09:21:22;;;;;;;;;;;;;;;23.03;29.93;98208.31;4942046;29;1034;-76
2023/07/12 09:23:48;;;;;;;;;;;;;;;23.01;29.81;98216.50;4941263;29;1036;-77
2023/07/12 09:26:24;;;;;;;;;;;;;;;23.05;29.98;98208.66;4941905;29;886;-76
2023/07/12 09:28:51;;;;;;;;;;;;;;;23.19;29.88;98211.06;4941312;29;1906;-77
2023/07/12 09:31:19;;;;;;;;;;;;;;;23.31;29.52;98204.63;4942170;28;1405;-77
2023/07/12 09:33:47;;;;;;;;;;;;;;;23.11;29.85;98209.72;4925253;29;999;-76
2023/07/12 09:36:15;;;;;;;;;;;;;;;23.12;29.72;98212.09;4941567;29;902;-77
2023/07/12 09:38:42;;;;;;;;;;;;;;;23.09;29.88;98212.19;4978227;28;926;-77
2023/07/12 09:41:08;;;;;;;;;;;;;;;23.16;29.66;98209.16;4980606;28;868;-77
2023/07/12 09:43:33;;;;;;;;;;;;;;;23.06;30.00;98201.75;4979932;28;1140;-76
2023/07/12 09:46:22;;;;;;;;;;;;;;;23.19;29.81;98205.38;4982449;28;1494;-76
2023/07/12 09:48:59;;;;;;;;;;;;;;;23.33;29.64;98210.66;4917554;29;1971;-77
2023/07/12 09:51:29;;;;;;;;;;;;;;;23.37;29.41;98207.72;4918150;29;1457;-76
2023/07/12 09:54:06;;;;;;;;;;;;;;;22.86;30.29;98201.88;4903096;29;1036;-76
2023/07/12 09:56:55;;;;;;;;;;;;;;;23.08;29.86;98204.91;4902860;29;957;-76
2023/07/12 09:59:20;;;;;;;;;;;;;;;23.15;29.69;98204.69;4862507;29;927;-76
2023/07/12 10:01:56;;;;;;;;;;;;;;;22.92;30.17;98196.47;4862454;29;951;-76
2023/07/12 10:04:31;;;;;;;;;;;;;;;23.24;29.83;98196.31;4862299;29;905;-77
2023/07/12 10:06:56;;;;;;;;;;;;;;;23.07;29.64;98198.44;4851602;29;2000;-76
2023/07/12 10:09:29;;;;;;;;;;;;;;;23.16;29.89;98200.63;4843697;29;978;-75
2023/07/12 10:11:57;;;;;;;;;;;;;;;22.91;30.31;98203.41;4846689;29;1334;-76
2023/07/12 10:14:25;;;;;;;;;;;;;;;22.90;30.38;98202.63;4830864;29;1510;-76
2023/07/12 10:16:51;;;;;;;;;;;;;;;23.12;29.77;98194.25;4846198;29;2164;-76
2023/07/12 10:19:37;;;;;;;;;;;;;;;23.14;30.09;98186.06;4862122;29;1009;-77
2023/07/12 10:22:04;;;;;;;;;;;;;;;23.07;30.13;98191.97;4862019;29;1152;-76
2023/07/12 10:24:34;;;;;;;;;;;;;;;22.99;30.07;98191.38;4862322;29;945;-76
2023/07/12 10:27:00;;;;;;;;;;;;;;;23.25;29.76;98191.44;4902523;29;1907;-76
2023/07/12 10:29:28;;;;;;;;;;;;;;;23.26;29.69;98188.16;4916480;29;1462;-76
2023/07/12 10:31:57;;;;;;;;;;;;;;;23.28;29.56;98208.38;4921462;29;1478;-77
2023/07/12 10:34:23;;;;;;;;;;;;;;;23.17;29.75;98196.53;4920915;29;1002;-76
2023/07/12 10:36:49;;;;;;;;;;;;;;;23.28;29.83;98191.34;4993425;28;984;-76
2023/07/12 10:39:15;;;;;;;;;;;;;;;23.20;29.88;98189.16;5016401;28;886;-76
2023/07/12 10:41:44;;;;;;;;;;;;;;;22.98;29.99;98197.50;5015122;28;1362;-76
2023/07/12 10:44:17;;;;;;;;;;;;;;;23.19;30.00;98196.88;4975268;28;985;-76
2023/07/12 10:46:44;;;;;;;;;;;;;;;23.09;30.18;98186.63;4901915;29;940;-76
2023/07/12 10:49:12;;;;;;;;;;;;;;;23.06;30.20;98174.16;4901939;29;1979;-77
2023/07/12 10:51:39;;;;;;;;;;;;;;;23.05;30.18;98185.94;4918239;29;1182;-76
2023/07/12 10:54:05;;;;;;;;;;;;;;;23.21;29.92;98174.53;4880141;29;1197;-77
2023/07/12 10:56:34;;;;;;;;;;;;;;;23.18;30.02;98181.09;4862177;29;1387;-75
2023/07/12 10:59:00;;;;;;;;;;;;;;;23.20;29.86;98164.41;4877051;29;1236;-75
2023/07/12 11:01:41;;;;;;;;;;;;;;;23.24;29.77;98182.13;4861752;29;954;-76
2023/07/12 11:04:13;;;;;;;;;;;;;;;23.37;29.72;98179.31;4876985;29;1310;-76
2023/07/12 11:06:54;;;;;;;;;;;;;;;23.27;29.73;98172.72;4861722;29;1511;-77
2023/07/12 11:09:20;;;;;;;;;;;;;;;23.25;29.67;98169.50;4895712;29;1469;-76
2023/07/12 11:12:06;;;;;;;;;;;;;;;23.45;29.31;98160.00;4864979;29;878;-76
2023/07/12 11:14:37;;;;;;;;;;;;;;;23.33;29.48;98165.22;4888601;29;1326;-76
2023/07/12 11:17:06;;;;;;;;;;;;;;;22.98;30.35;98160.63;4926352;29;956;-76
2023/07/12 11:19:40;;;;;;;;;;;;;;;23.13;30.04;98159.75;4955718;29;900;-77
2023/07/12 11:22:13;;;;;;;;;;;;;;;23.23;29.84;98166.34;4934224;29;1534;-76
2023/07/12 11:24:41;;;;;;;;;;;;;;;23.29;29.72;98150.34;4932907;28;1130;-77
2023/07/12 11:27:09;;;;;;;;;;;;;;;23.19;29.86;98159.97;4959023;28;1906;-77
2023/07/12 11:29:35;;;;;;;;;;;;;;;23.16;30.15;98160.91;4958889;28;1119;-77
2023/07/12 11:32:04;;;;;;;;;;;;;;;23.24;29.57;98155.78;4967890;28;1392;-77
2023/07/12 11:34:30;;;;;;;;;;;;;;;23.39;29.53;98152.03;4975184;28;901;-76
2023/07/12 11:36:55;;;;;;;;;;;;;;;23.01;29.83;98142.72;4939965;29;1001;-76
2023/07/12 11:39:22;;;;;;;;;;;;;;;23.21;30.00;98157.50;4939781;29;972;-76
2023/07/12 11:41:52;;;;;;;;;;;;;;;23.02;30.41;98155.63;4939606;29;1068;-77
2023/07/12 11:44:18;;;;;;;;;;;;;;;23.19;30.03;98159.19;4939906;29;935;-76
2023/07/12 11:46:43;;;;;;;;;;;;;;;22.85;30.41;98157.72;4941564;28;1402;-77
2023/07/12 11:49:11;;;;;;;;;;;;;;;23.31;30.02;98159.22;4952654;29;1922;-77
2023/07/12 11:51:38;;;;;;;;;;;;;;;23.39;29.52;98160.56;4955503;28;1152;-77
2023/07/12 11:54:15;;;;;;;;;;;;;;;23.29;29.64;98161.69;4973080;28;1373;-76
2023/07/12 11:56:41;;;;;;;;;;;;;;;23.35;29.74;98157.03;4959015;28;985;-76
2023/07/12 11:59:12;;;;;;;;;;;;;;;23.29;29.91;98153.16;4974507;28;904;-76
2023/07/12 12:01:37;;;;;;;;;;;;;;;23.12;29.97;98149.63;4958780;28;974;-77
2023/07/12 12:04:04;;;;;;;;;;;;;;;23.11;29.88;98148.06;4958471;28;1719;-76
2023/07/12 12:06:29;;;;;;;;;;;;;;;23.22;29.99;98147.72;4992148;28;940;-77
2023/07/12 12:08:55;;;;;;;;;;;;;;;23.16;30.06;98148.72;4963482;28;1914;-77
2023/07/12 12:11:27;;;;;;;;;;;;;;;23.25;29.91;98138.28;4978029;28;937;-77
2023/07/12 12:13:53;;;;;;;;;;;;;;;23.42;29.73;98138.19;4962062;28;1001;-76
2023/07/12 12:16:20;;;;;;;;;;;;;;;23.27;29.76;98141.47;4962100;28;954;-76
2023/07/12 12:18:52;;;;;;;;;;;;;;;23.32;29.69;98137.28;4961526;28;1728;-76
2023/07/12 12:21:18;;;;;;;;;;;;;;;23.17;30.08;98144.66;4946029;28;1383;-76
2023/07/12 12:23:49;;;;;;;;;;;;;;;23.44;29.66;98130.00;4945424;28;1293;-77
2023/07/12 12:26:23;;;;;;;;;;;;;;;23.49;29.34;98132.28;4945988;28;972;-77
2023/07/12 12:29:07;;;;;;;;;;;;;;;23.21;29.98;98133.97;4945540;28;1998;-76
2023/07/12 12:31:33;;;;;;;;;;;;;;;23.09;30.23;98141.22;4961850;28;951;-77
2023/07/12 12:34:09;;;;;;;;;;;;;;;23.16;29.99;98137.38;4971360;28;1489;-77
2023/07/12 12:36:35;;;;;;;;;;;;;;;23.23;30.06;98137.94;4992036;28;922;-76
2023/07/12 12:39:15;;;;;;;;;;;;;;;23.21;29.65;98137.63;5001439;28;847;-76
2023/07/12 12:41:43;;;;;;;;;;;;;;;23.34;29.83;98135.56;5001896;28;811;-76
2023/07/12 12:44:12;;;;;;;;;;;;;;;23.28;29.81;98134.56;4985508;28;940;-76
2023/07/12 12:46:37;;;;;;;;;;;;;;;23.28;29.69;98140.22;5018894;28;1123;-75
2023/07/12 12:49:03;;;;;;;;;;;;;;;23.49;29.44;98137.97;5004996;28;1983;-76
2023/07/12 12:51:29;;;;;;;;;;;;;;;23.21;29.69;98126.28;4996106;28;899;-76
2023/07/12 12:53:55;;;;;;;;;;;;;;;23.14;29.87;98132.16;4981612;28;1199;-76
2023/07/12 12:56:20;;;;;;;;;;;;;;;23.38;29.69;98133.41;4949691;28;1122;-76
2023/07/12 12:58:46;;;;;;;;;;;;;;;23.20;30.07;98138.84;4981777;28;975;-76